Time;durP1;ratioP1;P1;durP2;ratioP2;P2;SDS_P1;SDS_P2;PMS_P1;PMS_P2;Temp;Humidity;BMP_temperature;BMP_pressure;BME280_temperature;BME280_humidity;BME280_pressure;Samples;Min_cycle;Max_cycle;Signal;HPM_P1;HPM_P2
2023/03/25 00:01:58;;;;;;;0.55;0.30;;;11.70;99.90;;;11.75;100.00;99914.88;5126168;29;20503;-70
2023/03/25 00:04:31;;;;;;;0.38;0.30;;;11.70;99.90;;;11.75;100.00;99916.63;5125566;29;20106;-69
2023/03/25 00:07:03;;;;;;;0.28;0.28;;;11.70;99.90;;;11.75;100.00;99911.41;5125795;28;20375;-70
2023/03/25 00:09:37;;;;;;;1.35;0.40;;;11.70;99.90;;;11.69;100.00;99900.00;5125706;29;20043;-70
2023/03/25 00:12:09;;;;;;;0.28;0.20;;;11.60;99.90;;;11.65;100.00;99906.00;5126130;29;20121;-70
2023/03/25 00:14:53;;;;;;;1.15;0.40;;;11.60;99.90;;;11.62;100.00;99905.97;5125610;28;20065;-70
2023/03/25 00:17:27;;;;;;;1.48;0.50;;;11.60;99.90;;;11.61;100.00;99909.44;5124084;28;20054;-71
2023/03/25 00:20:01;;;;;;;0.68;0.47;;;11.60;99.90;;;11.58;100.00;99904.16;5125469;29;20130;-70
2023/03/25 00:22:35;;;;;;;2.33;0.73;;;11.50;99.90;;;11.54;99.38;99910.19;5125581;28;20035;-70
2023/03/25 00:25:12;;;;;;;2.58;0.50;;;11.50;99.90;;;11.57;100.00;99911.97;5125339;29;20050;-69
2023/03/25 00:27:45;;;;;;;3.25;0.50;;;11.50;99.90;;;11.52;100.00;99917.09;5118085;28;20167;-70
2023/03/25 00:30:19;;;;;;;1.88;0.50;;;11.50;99.90;;;11.52;100.00;99914.50;5125202;29;20062;-70
2023/03/25 00:32:52;;;;;;;0.40;0.30;;;11.50;99.90;;;11.49;100.00;99908.34;5125774;29;20047;-70
2023/03/25 00:35:25;;;;;;;1.55;0.50;;;11.40;99.90;;;11.48;100.00;99904.88;5139684;28;20409;-69
2023/03/25 00:38:00;;;;;;;1.98;0.30;;;11.40;99.90;;;11.50;100.00;99904.88;5140266;28;20571;-69
2023/03/25 00:40:34;;;;;;;2.03;0.47;;;11.40;99.90;;;11.47;100.00;99897.88;5124925;29;20150;-70
2023/03/25 00:43:07;;;;;;;0.80;0.40;;;11.40;99.90;;;11.46;99.88;99901.34;5140219;28;20039;-70
2023/03/25 00:45:39;;;;;;;1.27;0.50;;;11.40;99.90;;;11.47;100.00;99900.47;5124644;29;20503;-70
2023/03/25 00:48:11;;;;;;;0.60;0.43;;;11.40;99.90;;;11.48;100.00;99904.88;5132144;28;20048;-69
2023/03/25 00:50:45;;;;;;;1.13;0.55;;;11.40;99.90;;;11.49;100.00;99908.34;5124314;28;20138;-70
2023/03/25 00:53:18;;;;;;;1.42;0.40;;;11.40;99.90;;;11.52;100.00;99909.28;5124760;29;20504;-70
2023/03/25 00:55:57;;;;;;;2.72;0.40;;;11.50;99.90;;;11.50;100.00;99900.53;5124895;28;20138;-69
2023/03/25 00:58:30;;;;;;;0.55;0.40;;;11.40;99.90;;;11.52;100.00;99892.72;5124606;29;20130;-70
2023/03/25 01:01:11;;;;;;;1.60;0.47;;;11.40;99.90;;;11.52;100.00;99897.94;5132077;28;20062;-69
2023/03/25 01:03:44;;;;;;;0.85;0.50;;;11.40;99.90;;;11.50;100.00;99886.63;5119870;29;20043;-69
2023/03/25 01:06:20;;;;;;;1.10;0.30;;;11.40;99.90;;;11.46;100.00;99880.47;5120143;28;20079;-70
2023/03/25 01:08:53;;;;;;;1.85;0.50;;;11.40;99.90;;;11.44;100.00;99884.78;5124750;28;20082;-70
2023/03/25 01:11:29;;;;;;;2.47;0.50;;;11.40;99.90;;;11.47;100.00;99890.03;5124726;29;20043;-70
2023/03/25 01:14:03;;;;;;;1.80;0.47;;;11.40;99.90;;;11.46;100.00;99890.03;5140116;28;20043;-70
2023/03/25 01:16:36;;;;;;;1.23;0.50;;;11.40;99.90;;;11.48;100.00;99889.22;5124090;29;20126;-69
2023/03/25 01:19:09;;;;;;;1.52;0.50;;;11.40;99.90;;;11.44;100.00;99889.13;5139555;28;20050;-70
2023/03/25 01:21:41;;;;;;;2.72;0.60;;;11.40;99.90;;;11.48;100.00;99894.44;5123030;29;20051;-71
2023/03/25 01:24:15;;;;;;;1.20;0.57;;;11.40;99.90;;;11.44;100.00;99884.78;5132006;28;20052;-70
2023/03/25 01:26:49;;;;;;;1.15;0.50;;;11.40;99.90;;;11.44;100.00;99883.91;5112820;29;20039;-70
2023/03/25 01:29:22;;;;;;;1.58;0.47;;;11.40;99.90;;;11.44;100.00;99878.69;5120062;28;20044;-70
2023/03/25 01:31:54;;;;;;;0.77;0.50;;;11.40;99.90;;;11.43;100.00;99883.03;5134341;28;20055;-70
2023/03/25 01:34:26;;;;;;;1.58;0.50;;;11.40;99.90;;;11.44;100.00;99882.16;5121882;29;20055;-70
2023/03/25 01:37:00;;;;;;;2.83;0.60;;;11.40;99.90;;;11.43;100.00;99885.63;5124512;29;20050;-71
2023/03/25 01:39:33;;;;;;;2.50;0.90;;;11.40;99.90;;;11.40;100.00;99882.97;5121446;28;20487;-70
2023/03/25 01:42:06;;;;;;;2.85;0.60;;;11.40;99.90;;;11.39;100.00;99874.25;5139512;28;20055;-69
2023/03/25 01:45:29;;;;;;;1.13;0.40;;;11.40;99.90;;;11.37;100.00;99870.75;5123870;29;20062;-70
2023/03/25 01:48:09;;;;;;;0.85;0.50;;;11.30;99.90;;;11.35;100.00;99874.19;5035626;29;20548;-70
2023/03/25 01:50:45;;;;;;;1.27;0.60;;;11.30;99.90;;;11.38;100.00;99887.28;5112817;29;20134;-70
2023/03/25 01:53:18;;;;;;;1.23;0.38;;;11.30;99.90;;;11.37;100.00;99875.09;5123965;29;20054;-70
2023/03/25 01:55:53;;;;;;;0.55;0.30;;;11.30;99.90;;;11.34;100.00;99869.81;5124036;29;20047;-70
2023/03/25 01:58:29;;;;;;;0.77;0.30;;;11.30;99.90;;;11.35;100.00;99874.19;5138222;28;20500;-69
2023/03/25 02:01:02;;;;;;;1.50;0.52;;;11.30;99.90;;;11.34;100.00;99870.69;5123989;29;20110;-70
2023/03/25 02:03:36;;;;;;;3.00;0.80;;;11.30;99.90;;;11.28;100.00;99862.78;5123802;28;20051;-69
2023/03/25 02:06:15;;;;;;;0.80;0.73;;;11.30;99.90;;;11.30;100.00;99865.41;5123548;29;20464;-70
2023/03/25 02:08:47;;;;;;;2.25;0.95;;;11.30;99.90;;;11.25;100.00;99859.22;5115781;29;20070;-70
2023/03/25 02:11:20;;;;;;;1.88;0.52;;;11.20;99.90;;;11.20;100.00;99858.25;5137599;28;20574;-70
2023/03/25 02:13:54;;;;;;;2.42;0.70;;;11.20;99.90;;;11.21;100.00;99855.69;5123672;28;20116;-70
2023/03/25 02:16:34;;;;;;;2.03;0.80;;;11.20;99.90;;;11.21;100.00;99849.59;5123026;29;20071;-70
2023/03/25 02:19:47;;;;;;;3.78;0.98;;;11.20;99.90;;;11.20;100.00;99847.84;5138766;28;20410;-70
2023/03/25 02:23:02;;;;;;;1.60;0.55;;;11.10;99.90;;;11.17;100.00;99845.19;5130336;28;20055;-71
2023/03/25 02:26:02;;;;;;;1.27;0.43;;;11.10;99.90;;;11.16;100.00;99846.91;5123340;29;20043;-70
2023/03/25 02:28:46;;;;;;;0.73;0.50;;;11.10;99.90;;;11.15;100.00;99850.38;5123275;28;20530;-69
2023/03/25 02:31:48;;;;;;;1.55;0.70;;;11.10;99.90;;;11.18;100.00;99845.22;5138058;28;20047;-69
2023/03/25 02:34:40;;;;;;;2.22;0.50;;;11.10;99.90;;;11.20;100.00;99835.66;5122163;29;20490;-69
2023/03/25 02:38:05;;;;;;;1.40;0.60;;;11.20;99.90;;;11.19;100.00;99835.66;5138258;28;20043;-69
2023/03/25 02:40:47;;;;;;;2.60;0.50;;;11.10;99.90;;;11.24;100.00;99834.88;5138442;28;20065;-70
2023/03/25 02:43:24;;;;;;;2.35;0.57;;;11.10;99.90;;;11.24;100.00;99826.19;5137715;28;20456;-70
2023/03/25 02:46:01;;;;;;;4.00;0.50;;;11.20;99.90;;;11.16;100.00;99819.97;5138082;28;20075;-69
2023/03/25 02:48:40;;;;;;;1.60;0.57;;;11.10;99.90;;;11.22;100.00;99825.28;5122842;29;20043;-70
2023/03/25 02:51:20;;;;;;;2.10;0.30;;;11.20;99.90;;;11.18;100.00;99844.31;5123225;28;20027;-69
2023/03/25 02:53:58;;;;;;;1.13;0.70;;;11.10;99.90;;;11.16;100.00;99848.66;5115803;29;20039;-70
2023/03/25 02:56:34;;;;;;;1.17;0.63;;;11.10;99.90;;;11.16;100.00;99864.31;5122450;29;20043;-70
2023/03/25 02:59:08;;;;;;;2.00;0.50;;;11.20;99.90;;;11.14;100.00;99862.50;5130136;28;20043;-70
2023/03/25 03:01:41;;;;;;;1.52;0.60;;;11.20;99.90;;;11.13;100.00;99863.38;5122925;29;20504;-69
2023/03/25 03:04:13;;;;;;;3.53;0.68;;;11.10;99.90;;;11.13;100.00;99862.50;5138309;28;20043;-70
2023/03/25 03:06:46;;;;;;;0.60;0.47;;;11.10;99.90;;;11.11;100.00;99859.88;5137318;28;20059;-69
2023/03/25 03:09:31;;;;;;;1.15;0.50;;;11.10;99.90;;;11.11;100.00;99859.88;5122765;28;20051;-70
2023/03/25 03:12:19;;;;;;;0.80;0.35;;;11.10;99.90;;;11.10;100.00;99850.28;5131997;28;20512;-70
2023/03/25 03:14:58;;;;;;;;;;;11.10;99.90;;;11.09;100.00;99852.88;5116025;29;20043;-69
2023/03/25 03:17:40;;;;;;;1.80;0.55;;;11.10;99.90;;;11.08;100.00;99854.63;5122843;29;19926;-70
2023/03/25 03:20:24;;;;;;;2.60;0.60;;;11.00;99.90;;;11.06;100.00;99856.28;5123544;28;20058;-70
2023/03/25 03:23:04;;;;;;;0.93;0.50;;;11.00;99.90;;;11.06;100.00;99856.28;5131198;28;20098;-70
2023/03/25 03:25:47;;;;;;;1.85;0.40;;;11.00;99.90;;;11.07;100.00;99860.66;5122861;29;20067;-69
2023/03/25 03:28:29;;;;;;;1.08;0.40;;;11.00;99.90;;;11.07;100.00;99860.66;5122652;29;20051;-69
2023/03/25 03:31:06;;;;;;;2.53;0.52;;;11.00;99.90;;;11.08;100.00;99859.84;5116952;29;20047;-69
2023/03/25 03:33:43;;;;;;;1.95;0.50;;;11.00;99.90;;;11.07;100.00;99857.16;5125918;28;20053;-69
2023/03/25 03:36:20;;;;;;;1.63;0.40;;;11.00;99.90;;;11.06;100.00;99861.50;5127119;29;20117;-70
2023/03/25 03:38:59;;;;;;;2.45;0.60;;;11.00;99.90;;;11.06;100.00;99860.63;5126784;28;20047;-69
2023/03/25 03:41:37;;;;;;;1.40;0.50;;;11.00;99.90;;;11.05;100.00;99856.28;5126956;28;20530;-69
2023/03/25 03:44:13;;;;;;;4.93;0.60;;;11.00;99.90;;;11.04;100.00;99852.78;5141413;28;20054;-70
2023/03/25 03:49:26;;;;;;;1.50;0.40;;;11.00;99.90;;;11.00;100.00;99865.75;5156541;23;20035;-69
2023/03/25 03:52:08;;;;;;;1.70;0.73;;;11.00;99.90;;;10.99;100.00;99857.03;5136909;28;20097;-69
2023/03/25 03:54:47;;;;;;;3.33;0.60;;;11.00;99.90;;;11.00;100.00;99865.75;5144452;28;20054;-69
2023/03/25 03:57:28;;;;;;;1.52;0.43;;;11.00;99.90;;;10.98;100.00;99862.22;5130669;28;20040;-69
2023/03/25 04:00:04;;;;;;;;;;;11.00;99.90;;;11.00;100.00;99863.13;5126686;28;20047;-69
2023/03/25 04:02:49;;;;;;;2.92;0.77;;;11.00;99.90;;;10.99;100.00;99864.84;5126232;28;20397;-70
2023/03/25 04:05:29;;;;;;;0.88;0.50;;;11.00;99.90;;;10.99;100.00;99874.41;5134188;28;20461;-70
2023/03/25 04:08:10;;;;;;;1.85;0.47;;;11.00;99.90;;;10.95;100.00;99865.63;5131425;28;20070;-71
2023/03/25 04:10:51;;;;;;;2.20;0.43;;;10.90;99.90;;;10.94;100.00;99861.28;5138115;28;20042;-70
2023/03/25 04:13:30;;;;;;;3.65;0.80;;;10.90;99.90;;;10.92;100.00;99868.22;5138310;28;20126;-71
2023/03/25 04:16:03;;;;;;;1.90;0.60;;;10.90;99.90;;;10.92;100.00;99870.81;5131557;28;20514;-70
2023/03/25 04:18:35;;;;;;;2.50;0.57;;;10.90;99.90;;;10.89;100.00;99870.78;5137915;28;20050;-68
2023/03/25 04:21:14;;;;;;;0.75;0.50;;;10.90;99.90;;;10.87;100.00;99875.94;5146694;28;20046;-69
2023/03/25 04:23:46;;;;;;;1.02;0.50;;;10.90;99.90;;;10.89;100.00;99878.59;5146194;28;20424;-68
2023/03/25 04:26:18;;;;;;;0.82;0.50;;;10.90;99.90;;;10.92;100.00;99883.84;5130458;28;20524;-68
2023/03/25 04:28:52;;;;;;;1.83;0.60;;;10.90;99.90;;;10.89;100.00;99883.81;5137762;28;20559;-67
2023/03/25 04:31:24;;;;;;;3.42;0.60;;;10.90;99.90;;;10.87;100.00;99881.16;5138112;28;20051;-70
2023/03/25 04:33:57;;;;;;;1.10;0.50;;;10.90;99.90;;;10.86;100.00;99879.41;5141488;28;20043;-70
2023/03/25 04:36:32;;;;;;;1.00;0.50;;;10.80;99.90;;;10.85;100.00;99885.47;5125657;28;20047;-68
2023/03/25 04:39:06;;;;;;;0.75;0.50;;;10.80;99.90;;;10.86;100.00;99884.59;5139295;28;20129;-70
2023/03/25 04:41:39;;;;;;;0.95;0.50;;;10.80;99.90;;;10.89;100.00;99883.81;5145037;28;20054;-70
2023/03/25 04:44:13;;;;;;;1.67;0.40;;;10.90;99.90;;;10.88;100.00;99871.59;5129936;28;20047;-69
2023/03/25 04:46:45;;;;;;;1.13;0.50;;;10.90;99.90;;;10.91;100.00;99871.66;5136470;28;20094;-69
2023/03/25 04:49:20;;;;;;;2.20;0.50;;;10.90;99.90;;;10.92;100.00;99886.47;5137530;28;20047;-68
2023/03/25 04:51:56;;;;;;;0.50;0.50;;;10.90;99.90;;;10.91;100.00;99882.09;5129764;28;20054;-71
2023/03/25 04:54:29;;;;;;;1.35;0.40;;;10.90;99.90;;;10.93;100.00;99882.13;5135954;28;20054;-71
2023/03/25 04:57:01;;;;;;;2.08;0.50;;;10.90;99.90;;;10.94;100.00;99881.25;5145135;28;20054;-69
2023/03/25 04:59:35;;;;;;;0.70;0.43;;;10.90;99.90;;;10.93;100.00;99884.72;5136794;28;20047;-70
2023/03/25 05:02:11;;;;;;;0.40;0.30;;;10.90;99.90;;;10.92;100.00;99881.25;5140069;28;20361;-70
2023/03/25 05:04:46;;;;;;;2.40;0.75;;;10.90;99.90;;;10.94;100.00;99884.75;5135946;28;20055;-69
2023/03/25 05:07:19;;;;;;;1.77;0.50;;;11.00;99.90;;;10.93;100.00;99877.78;5136897;28;20086;-71
2023/03/25 05:09:51;;;;;;;1.95;0.60;;;11.00;99.90;;;10.94;100.00;99878.66;5144513;28;20046;-69
2023/03/25 05:12:24;;;;;;;1.25;0.50;;;10.90;99.90;;;10.87;100.00;99873.31;5145207;28;20514;-69
2023/03/25 05:14:57;;;;;;;1.23;0.50;;;10.90;99.90;;;10.89;100.00;99865.56;5137007;28;20106;-68
2023/03/25 05:17:29;;;;;;;1.23;0.55;;;10.90;99.90;;;10.88;100.00;99879.41;5136569;28;20071;-70
2023/03/25 05:20:03;;;;;;;1.77;0.47;;;10.90;99.90;;;10.86;100.00;99873.31;5132386;28;20374;-71
2023/03/25 05:22:36;;;;;;;0.57;0.50;;;10.90;99.90;;;10.87;100.00;99881.16;5134459;28;20054;-69
2023/03/25 05:25:10;;;;;;;0.95;0.50;;;10.90;99.90;;;10.88;100.00;99876.81;5145001;28;20043;-70
2023/03/25 05:27:42;;;;;;;1.40;0.50;;;10.90;99.90;;;10.88;100.00;99877.69;5135413;28;20404;-70
2023/03/25 05:30:16;;;;;;;2.88;0.50;;;10.90;99.90;;;10.89;100.00;99873.38;5123791;28;20050;-70
2023/03/25 05:32:49;;;;;;;1.33;0.50;;;10.90;99.90;;;10.90;100.00;99880.34;5128007;28;20039;-70
2023/03/25 05:35:21;;;;;;;1.40;0.50;;;10.90;99.90;;;10.90;100.00;99880.34;5137466;28;20110;-69
2023/03/25 05:37:54;;;;;;;0.63;0.40;;;10.90;99.90;;;10.89;100.00;99876.00;5128597;28;20039;-69
2023/03/25 05:40:26;;;;;;;0.80;0.40;;;10.90;99.90;;;10.92;100.00;99886.47;5135634;28;20051;-70
2023/03/25 05:42:58;;;;;;;2.33;0.70;;;10.90;99.90;;;10.94;100.00;99882.13;5124561;28;20051;-71
2023/03/25 05:45:34;;;;;;;3.58;0.55;;;10.90;99.90;;;10.94;100.00;99887.34;5132962;28;20046;-71
2023/03/25 05:48:07;;;;;;;0.60;0.47;;;10.90;99.90;;;10.93;100.00;99887.34;5131253;28;20492;-71
2023/03/25 05:50:41;;;;;;;2.22;0.50;;;10.90;99.90;;;10.92;100.00;99878.63;5131402;28;20050;-70
2023/03/25 05:53:15;;;;;;;2.40;0.93;;;10.90;99.90;;;10.90;100.00;99875.13;5139059;28;20125;-72
2023/03/25 05:55:50;;;;;;;1.45;0.40;;;10.90;99.90;;;10.93;100.00;99883.00;5133615;28;20047;-69
2023/03/25 05:58:23;;;;;;;1.73;0.50;;;10.90;99.90;;;10.94;100.00;99882.13;5139477;28;20047;-72
2023/03/25 06:00:58;;;;;;;1.55;0.90;;;11.00;99.90;;;10.92;99.70;99883.84;5134613;28;20062;-71
2023/03/25 06:03:33;;;;;;;3.92;0.75;;;10.90;99.90;;;10.91;99.36;99886.44;5143838;28;20105;-69
2023/03/25 06:06:17;;;;;;;0.98;0.38;;;10.90;99.90;;;10.89;100.00;99881.19;5137375;28;20038;-70
2023/03/25 06:08:50;;;;;;;2.10;0.50;;;10.90;99.90;;;10.88;100.00;99887.25;5128504;28;20038;-70
2023/03/25 06:11:23;;;;;;;3.38;0.90;;;10.90;99.90;;;10.92;100.00;99881.25;5135324;28;20050;-69
2023/03/25 06:13:55;;;;;;;1.92;0.65;;;10.90;99.90;;;10.95;100.00;99877.81;5143991;28;20121;-69
2023/03/25 06:16:29;;;;;;;0.88;0.47;;;10.90;99.90;;;10.99;100.00;99879.63;5135880;28;20043;-69
2023/03/25 06:19:03;;;;;;;1.50;0.35;;;11.00;99.90;;;11.02;100.00;99882.28;5128807;28;20042;-70
2023/03/25 06:21:39;;;;;;;1.65;0.57;;;11.00;99.90;;;11.05;100.00;99892.78;5134921;28;20383;-70
2023/03/25 06:24:12;;;;;;;2.15;0.65;;;11.00;99.90;;;11.08;100.00;99883.31;5136238;28;20054;-70
2023/03/25 06:26:44;;;;;;;0.65;0.50;;;11.00;99.90;;;11.11;100.00;99877.25;5135526;28;20046;-71
2023/03/25 06:29:16;;;;;;;1.75;0.47;;;11.10;99.90;;;11.20;100.00;99889.56;5144054;28;20074;-68
2023/03/25 06:31:49;;;;;;;1.88;0.60;;;11.20;99.90;;;11.27;100.00;99878.38;5136236;28;20164;-70
2023/03/25 06:34:21;;;;;;;1.80;0.57;;;11.20;99.90;;;11.33;100.00;99886.31;5135699;28;20047;-70
2023/03/25 06:36:53;;;;;;;2.45;0.85;;;11.30;99.90;;;11.39;98.16;99884.69;5141771;28;20526;-71
2023/03/25 06:39:26;;;;;;;2.60;0.68;;;11.30;99.90;;;11.38;100.00;99890.78;5135918;28;20035;-69
2023/03/25 06:42:01;;;;;;;;;;;11.40;99.90;;;11.38;100.00;99892.50;5158960;28;20042;-70
2023/03/25 06:44:49;;;;;;;2.08;0.40;;;11.30;99.90;;;11.35;100.00;99895.06;5139834;28;19966;-71
2023/03/25 06:47:44;;;;;;;4.00;0.60;;;11.30;99.90;;;11.37;100.00;99890.75;5138845;28;20058;-71
2023/03/25 06:50:16;;;;;;;0.88;0.40;;;11.30;99.90;;;11.33;99.94;99886.31;5130165;28;20047;-70
2023/03/25 06:52:48;;;;;;;1.48;0.52;;;11.30;99.90;;;11.32;100.00;99884.56;5140831;28;20423;-71
2023/03/25 06:55:21;;;;;;;0.80;0.50;;;11.30;99.90;;;11.36;100.00;99891.59;5129310;28;20519;-69
2023/03/25 06:57:55;;;;;;;2.65;0.98;;;11.30;99.90;;;11.36;100.00;99886.38;5132294;28;20047;-70
2023/03/25 07:00:27;;;;;;;2.40;0.65;;;11.30;99.90;;;11.33;100.00;99896.75;5122374;28;20051;-69
2023/03/25 07:03:01;;;;;;;1.35;0.30;;;11.30;99.90;;;11.30;100.00;99901.94;5142592;28;20057;-67
2023/03/25 07:05:33;;;;;;;1.23;0.47;;;11.30;99.90;;;11.29;100.00;99915.84;5142359;28;20050;-55
2023/03/25 07:08:06;;;;;;;1.63;0.60;;;11.30;99.90;;;11.28;100.00;99914.06;5124790;28;20053;-56
2023/03/25 07:10:38;;;;;;;0.57;0.40;;;11.30;99.90;;;11.28;100.00;99940.13;5128128;28;20501;-57
2023/03/25 07:13:10;;;;;;;3.15;0.60;;;11.30;99.90;;;11.18;100.00;99901.72;5134184;28;20043;-55
2023/03/25 07:15:43;;;;;;;1.98;0.63;;;11.20;99.90;;;11.10;100.00;99907.66;5134728;28;20054;-55
2023/03/25 07:18:16;;;;;;;2.83;0.57;;;11.10;99.90;;;11.02;100.00;99906.66;5127099;28;20047;-57
2023/03/25 07:20:48;;;;;;;2.88;0.70;;;11.10;99.90;;;10.98;100.00;99912.66;5135677;28;20059;-55
2023/03/25 07:23:20;;;;;;;1.13;0.57;;;11.00;99.90;;;10.93;100.00;99916.03;5153664;28;20507;-54
2023/03/25 07:25:53;;;;;;;2.22;0.65;;;11.00;99.90;;;10.88;100.00;99923.75;5138400;28;20035;-54
2023/03/25 07:28:25;;;;;;;1.48;0.52;;;10.90;99.90;;;10.90;100.00;99921.19;5131725;28;20058;-54
2023/03/25 07:30:57;;;;;;;2.72;0.50;;;10.90;99.90;;;10.91;100.00;99922.94;5144661;28;20049;-56
2023/03/25 07:33:30;;;;;;;3.20;0.90;;;10.90;99.90;;;10.87;100.00;99924.59;5146429;28;20047;-56
2023/03/25 07:36:03;;;;;;;2.88;0.70;;;10.90;99.90;;;10.85;100.00;99915.88;5138579;28;20522;-54
2023/03/25 07:38:35;;;;;;;2.25;0.57;;;10.80;99.90;;;10.91;100.00;99930.75;5144917;28;20442;-55
2023/03/25 07:41:09;;;;;;;2.58;0.60;;;10.90;99.90;;;10.91;100.00;99918.59;5133775;28;20055;-55
2023/03/25 07:43:42;;;;;;;2.03;0.73;;;10.80;99.90;;;10.95;100.00;99923.00;5134561;28;20545;-55
2023/03/25 07:46:30;;;;;;;2.50;0.90;;;10.90;99.90;;;11.01;100.00;99927.47;5125154;28;20047;-56
2023/03/25 07:49:03;;;;;;;2.70;0.65;;;11.00;99.90;;;10.99;100.00;99927.44;5142255;28;20046;-55
2023/03/25 07:51:35;;;;;;;2.92;0.93;;;11.00;99.90;;;10.96;100.00;99926.53;5132892;28;20216;-58
2023/03/25 07:54:08;;;;;;;1.00;0.50;;;10.90;99.90;;;10.93;100.00;99936.88;5130933;28;20054;-58
2023/03/25 07:56:40;;;;;;;1.20;0.47;;;10.90;99.90;;;10.92;100.00;99929.91;5144960;28;20055;-55
2023/03/25 07:59:12;;;;;;;2.63;0.65;;;10.90;99.90;;;10.92;100.00;99941.22;5126191;28;20515;-55
2023/03/25 08:01:44;;;;;;;4.00;0.52;;;10.80;99.90;;;10.87;100.00;99948.94;5126501;28;20445;-54
2023/03/25 08:04:17;;;;;;;2.70;0.80;;;10.80;99.90;;;10.88;100.00;99949.81;5139885;28;20121;-54
2023/03/25 08:06:49;;;;;;;1.52;0.60;;;10.80;99.90;;;10.89;100.00;99949.00;5130006;28;20179;-53
2023/03/25 08:09:22;;;;;;;2.55;0.95;;;10.80;99.90;;;10.93;100.00;99948.19;5139547;28;20430;-54
2023/03/25 08:11:54;;;;;;;3.53;0.80;;;10.80;99.90;;;11.01;100.00;99956.16;5129047;28;20496;-54
2023/03/25 08:14:26;;;;;;;3.63;0.55;;;10.90;99.90;;;10.99;100.00;99956.13;5131034;28;20094;-54
2023/03/25 08:16:58;;;;;;;1.13;0.40;;;10.90;99.90;;;10.97;100.00;99963.06;5144906;28;20046;-53
2023/03/25 08:19:32;;;;;;;1.02;0.40;;;10.90;99.90;;;10.96;100.00;99963.91;5136519;28;20504;-53
2023/03/25 08:22:04;;;;;;;1.48;0.32;;;10.90;99.90;;;11.00;100.00;99970.03;5137191;28;20059;-53
2023/03/25 08:24:36;;;;;;;1.35;0.70;;;10.90;99.90;;;11.05;100.00;99971.03;5129689;28;20101;-55
2023/03/25 08:27:08;;;;;;;0.60;0.40;;;11.00;99.90;;;11.10;100.00;99975.47;5138029;28;20411;-54
2023/03/25 08:29:40;;;;;;;1.88;0.50;;;11.00;99.90;;;11.29;100.00;99976.72;5137669;28;20042;-53
2023/03/25 08:32:13;;;;;;;0.68;0.35;;;11.10;99.90;;;11.51;100.00;99980.59;5132849;28;20393;-54
2023/03/25 08:34:46;;;;;;;0.90;0.40;;;11.30;99.90;;;11.92;100.00;99972.63;5135084;28;20053;-53
2023/03/25 08:37:18;;;;;;;0.73;0.28;;;11.50;99.90;;;13.19;100.00;99983.09;5131806;28;20081;-53
2023/03/25 08:39:50;;;;;;;0.60;0.50;;;12.10;99.90;;;15.03;95.33;99985.44;5127507;28;20546;-53
2023/03/25 08:42:22;;;;;;;0.45;0.25;;;13.30;99.90;;;16.89;86.68;99979.41;5131538;28;20047;-53
2023/03/25 08:44:55;;;;;;;0.80;0.52;;;14.70;99.90;;;18.68;79.61;99975.47;5128415;28;20497;-54
2023/03/25 08:47:27;;;;;;;1.48;0.30;;;16.20;99.90;;;19.89;72.24;99984.44;5138513;28;20522;-54
2023/03/25 08:50:00;;;;;;;0.63;0.22;;;17.40;96.90;;;20.89;67.47;99988.84;5125309;28;20083;-54
2023/03/25 08:52:32;;;;;;;1.88;0.43;;;18.30;93.00;;;20.69;66.00;99979.50;5155903;28;20538;-57
2023/03/25 08:55:07;;;;;;;0.50;0.30;;;18.60;90.00;;;20.30;67.37;99987.25;5141404;28;20534;-58
2023/03/25 08:57:39;;;;;;;;;;;18.60;89.70;;;19.73;68.45;99982.00;5133479;28;20110;-54
2023/03/25 09:00:13;;;;;;;1.20;0.20;;;18.30;89.60;;;18.95;68.75;99985.69;5133174;28;19929;-55
2023/03/25 09:02:45;;;;;;;;;;;17.90;88.90;;;18.15;70.00;99980.38;5141546;28;20054;-54
2023/03/25 09:05:19;;;;;;;0.98;0.30;;;17.30;89.00;;;17.40;72.12;99987.03;5125337;28;20384;-56
2023/03/25 09:07:51;;;;;;;1.50;0.38;;;16.80;90.30;;;16.66;73.88;99978.53;5124990;28;20516;-53
2023/03/25 09:10:23;;;;;;;2.55;0.40;;;16.20;91.10;;;16.10;76.31;99988.25;5131688;28;20046;-57
2023/03/25 09:12:55;;;;;;;4.60;1.35;;;15.60;92.40;;;15.63;76.84;99983.00;5134213;28;20054;-58
2023/03/25 09:15:27;;;;;;;1.65;0.50;;;15.20;92.80;;;15.11;77.80;99982.84;5139472;28;20053;-55
2023/03/25 09:17:59;;;;;;;2.28;0.60;;;14.80;93.40;;;14.76;80.19;99985.31;5144484;28;20432;-54
2023/03/25 09:20:33;;;;;;;1.77;0.52;;;14.50;94.80;;;14.35;80.94;99986.81;5144559;28;20596;-55
2023/03/25 09:23:05;;;;;;;3.03;0.77;;;14.10;95.30;;;14.02;81.78;99991.81;5129158;28;20034;-53
2023/03/25 09:25:38;;;;;;;2.63;0.52;;;13.80;96.10;;;13.84;83.06;99984.66;5136447;28;20047;-56
2023/03/25 09:28:10;;;;;;;1.92;0.55;;;13.60;96.80;;;13.81;83.77;99976.75;5144707;28;20125;-55
2023/03/25 09:30:42;;;;;;;4.10;0.98;;;13.50;97.50;;;14.09;84.66;99975.25;5135802;28;20492;-53
2023/03/25 09:33:15;;;;;;;3.42;0.75;;;13.70;98.60;;;14.20;81.83;99978.81;5131884;28;20058;-54
2023/03/25 09:35:49;;;;;;;3.25;0.80;;;13.80;97.30;;;14.15;82.21;99970.06;5133184;28;20424;-52
2023/03/25 09:38:21;;;;;;;4.53;0.77;;;13.80;97.40;;;14.08;82.32;99973.47;5138349;28;20043;-53
2023/03/25 09:40:53;;;;;;;1.38;0.77;;;13.70;97.40;;;13.97;82.50;99969.91;5136492;28;20043;-54
2023/03/25 09:43:38;;;;;;;6.40;0.98;;;13.70;97.40;;;13.85;83.04;99975.94;5152851;28;20058;-53
2023/03/25 09:46:10;;;;;;;2.22;0.50;;;13.60;97.50;;;13.81;83.65;99976.75;5132326;28;20443;-53
2023/03/25 09:48:44;;;;;;;1.60;0.40;;;13.60;98.00;;;13.83;83.49;99977.66;5230370;23;20511;-58
2023/03/25 09:51:22;;;;;;;1.95;0.60;;;13.50;98.00;;;13.94;83.49;99980.34;5132627;28;20049;-58
2023/03/25 09:53:59;;;;;;;1.75;0.60;;;13.60;98.10;;;14.22;82.41;99984.97;5138562;28;20089;-57
2023/03/25 09:56:36;;;;;;;4.03;0.70;;;13.80;97.80;;;14.53;81.65;99991.28;5126205;28;20065;-58
2023/03/25 09:59:15;;;;;;;4.22;0.63;;;14.00;97.50;;;14.80;81.30;99976.56;5127065;28;20042;-58
2023/03/25 10:01:55;;;;;;;2.33;0.77;;;14.20;97.40;;;15.03;79.02;99984.56;5133656;28;20077;-58
2023/03/25 10:05:20;;;;;;;4.90;0.70;;;14.50;96.20;;;15.15;79.01;99981.97;5135225;28;20500;-57
2023/03/25 10:08:06;;;;;;;2.72;1.10;;;14.60;95.80;;;15.23;76.72;99982.00;5135902;28;20416;-58
2023/03/25 10:10:47;;;;;;;3.63;0.68;;;14.70;94.50;;;15.37;77.08;99983.78;5127152;28;20055;-59
2023/03/25 10:13:29;;;;;;;4.40;0.80;;;14.90;94.70;;;15.68;77.68;99986.50;5130088;28;20439;-59
2023/03/25 10:16:14;;;;;;;6.07;0.80;;;15.10;95.10;;;16.05;76.81;99981.28;5131598;28;20035;-58
2023/03/25 10:19:01;;;;;;;1.95;0.75;;;15.40;94.60;;;16.32;75.29;99990.91;5131890;28;20050;-58
2023/03/25 10:21:41;;;;;;;;;;;15.70;93.70;;;16.45;72.99;99990.88;5135520;28;20053;-58
2023/03/25 10:24:20;;;;;;;3.05;0.90;;;15.90;92.00;;;16.52;73.16;99994.38;5120234;28;19922;-58
2023/03/25 10:26:56;;;;;;;3.15;0.90;;;16.00;91.90;;;16.38;73.54;100002.28;5142184;28;20050;-58
2023/03/25 10:29:36;;;;;;;3.33;1.80;;;15.90;91.80;;;16.17;73.71;100003.19;5120590;28;20511;-58
2023/03/25 10:32:17;;;;;;;4.63;1.00;;;15.80;91.60;;;15.76;73.42;100003.16;5134621;28;20495;-58
2023/03/25 10:34:53;;;;;;;4.72;1.63;;;15.50;91.20;;;15.44;74.63;100001.31;5141202;28;20515;-57
2023/03/25 10:37:31;;;;;;;3.63;1.48;;;15.20;91.60;;;15.30;76.42;100004.78;5130290;28;20054;-57
2023/03/25 10:40:17;;;;;;;4.93;2.00;;;15.00;92.60;;;15.32;76.71;100005.66;5138469;28;20047;-59
2023/03/25 10:43:05;;;;;;;7.60;2.72;;;15.00;93.00;;;15.25;75.75;100011.75;5123776;28;20051;-58
2023/03/25 10:45:38;;;;;;;4.85;1.92;;;15.00;92.60;;;15.18;76.54;100005.59;5126686;28;20047;-57
2023/03/25 10:48:16;;;;;;;8.75;3.05;;;14.80;93.00;;;15.09;77.01;100016.09;5114692;28;20043;-57
2023/03/25 10:50:50;;;;;;;6.60;2.60;;;14.80;93.20;;;15.04;77.96;100009.94;5139352;28;20106;-57
2023/03/25 10:53:25;;;;;;;7.00;2.53;;;14.70;93.90;;;15.00;78.05;100006.44;5134462;28;20047;-58
2023/03/25 10:56:05;;;;;;;8.93;3.53;;;14.70;93.90;;;14.98;78.18;100013.41;5142040;28;20403;-59